createdAt,value
2023-04-27T00:01:19.925Z,2.17
2023-04-27T00:03:52.214Z,2.08
2023-04-27T00:06:22.062Z,1.90
2023-04-27T00:08:51.743Z,2.15
2023-04-27T00:11:21.447Z,2.00
2023-04-27T00:13:51.074Z,2.28
2023-04-27T00:16:21.150Z,1.88
2023-04-27T00:18:53.417Z,1.63
2023-04-27T00:21:23.105Z,2.08
2023-04-27T00:23:52.683Z,2.17
2023-04-27T00:26:22.719Z,2.10
2023-04-27T00:28:54.090Z,1.88
2023-04-27T00:31:23.741Z,2.13
2023-04-27T00:33:56.054Z,2.00
2023-04-27T00:36:25.695Z,1.40
2023-04-27T00:38:55.238Z,1.63
2023-04-27T00:41:25.141Z,2.40
2023-04-27T00:43:54.753Z,2.47
2023-04-27T00:46:24.440Z,2.00
2023-04-27T00:48:56.922Z,1.98
2023-04-27T00:51:28.355Z,1.77
2023-04-27T00:53:59.262Z,2.08
2023-04-27T00:56:28.883Z,2.13
2023-04-27T00:58:58.603Z,1.48
2023-04-27T01:01:28.344Z,2.40
2023-04-27T01:04:01.245Z,1.98
2023-04-27T01:06:32.605Z,1.75
2023-04-27T01:09:02.184Z,2.20
2023-04-27T01:11:31.815Z,1.60
2023-04-27T01:14:06.574Z,2.08
2023-04-27T01:16:37.523Z,1.80
2023-04-27T01:19:10.091Z,2.30
2023-04-27T01:21:39.757Z,2.08
2023-04-27T01:24:12.551Z,1.88
2023-04-27T01:26:42.224Z,2.15
2023-04-27T01:29:13.160Z,2.03
2023-04-27T01:31:44.301Z,1.77
2023-04-27T01:34:14.092Z,2.25
2023-04-27T01:36:43.687Z,1.85
2023-04-27T01:39:16.110Z,1.92
2023-04-27T01:41:45.841Z,2.45
2023-04-27T01:44:15.490Z,2.05
2023-04-27T01:46:45.220Z,1.90
2023-04-27T01:49:16.083Z,2.10
2023-04-27T01:51:46.024Z,2.08
2023-04-27T01:54:18.175Z,2.00
2023-04-27T01:56:47.824Z,2.45
2023-04-27T01:59:17.460Z,1.92
2023-04-27T02:01:47.116Z,1.83
2023-04-27T02:04:16.851Z,1.60
2023-04-27T02:06:46.500Z,1.95
2023-04-27T02:09:18.831Z,1.83
2023-04-27T02:11:48.412Z,2.05
2023-04-27T02:14:18.049Z,1.77
2023-04-27T02:16:50.020Z,2.15
2023-04-27T02:19:19.846Z,1.88
2023-04-27T02:21:49.842Z,1.90
2023-04-27T02:24:22.121Z,2.15
2023-04-27T02:26:51.786Z,2.38
2023-04-27T02:29:21.778Z,1.85
2023-04-27T02:31:51.832Z,1.80
2023-04-27T02:34:21.521Z,1.80
2023-04-27T02:36:51.159Z,1.63
2023-04-27T02:39:23.317Z,2.13
2023-04-27T02:41:52.888Z,1.75
2023-04-27T02:44:22.420Z,2.60
2023-04-27T02:46:53.961Z,1.65
2023-04-27T02:49:25.022Z,2.15
2023-04-27T02:51:54.633Z,1.92
2023-04-27T02:54:26.797Z,2.22
2023-04-27T02:56:56.508Z,2.30
2023-04-27T02:59:26.100Z,1.80
2023-04-27T03:01:55.838Z,2.17
2023-04-27T03:04:25.556Z,2.13
2023-04-27T03:06:55.296Z,2.33
2023-04-27T03:09:27.474Z,2.15
2023-04-27T03:11:57.150Z,2.20
2023-04-27T03:14:26.746Z,2.50
2023-04-27T03:16:57.934Z,1.98
2023-04-27T03:19:27.651Z,2.55
2023-04-27T03:21:57.234Z,1.75
2023-04-27T03:24:29.632Z,2.35
2023-04-27T03:26:59.241Z,2.20
2023-04-27T03:29:28.801Z,1.90
2023-04-27T03:31:58.423Z,2.10
2023-04-27T03:34:28.030Z,2.05
2023-04-27T03:36:57.939Z,2.22
2023-04-27T03:39:30.397Z,1.52
2023-04-27T03:42:00.551Z,1.98
2023-04-27T03:44:31.084Z,2.10
2023-04-27T03:47:00.833Z,1.52
2023-04-27T03:49:30.824Z,2.63
2023-04-27T03:52:00.485Z,2.17
2023-04-27T03:54:33.884Z,2.28
2023-04-27T03:57:04.603Z,2.22
2023-04-27T03:59:34.223Z,1.83
2023-04-27T04:02:04.359Z,1.95
2023-04-27T04:04:34.202Z,2.33
2023-04-27T04:07:05.415Z,2.22
2023-04-27T04:09:37.735Z,2.20
2023-04-27T04:12:07.915Z,2.38
2023-04-27T04:14:37.504Z,2.20
2023-04-27T04:17:07.289Z,2.55
2023-04-27T04:19:37.014Z,2.47
2023-04-27T04:22:06.813Z,2.72
2023-04-27T04:24:40.333Z,2.30
2023-04-27T04:27:09.983Z,2.58
2023-04-27T04:29:39.560Z,2.20
2023-04-27T04:32:10.238Z,2.10
2023-04-27T04:34:40.310Z,2.30
2023-04-27T04:37:09.973Z,2.10
2023-04-27T04:39:42.592Z,2.67
2023-04-27T04:42:12.803Z,2.60
2023-04-27T04:44:42.892Z,2.45
2023-04-27T04:47:13.380Z,2.00
2023-04-27T04:49:42.966Z,2.40
2023-04-27T04:52:13.117Z,2.33
2023-04-27T04:54:45.369Z,2.22
2023-04-27T04:57:15.203Z,2.83
2023-04-27T04:59:44.741Z,2.40
2023-04-27T05:02:14.658Z,2.33
2023-04-27T05:04:44.355Z,2.80
2023-04-27T05:07:15.275Z,2.58
2023-04-27T05:09:48.384Z,2.90
2023-04-27T05:12:17.942Z,2.35
2023-04-27T05:14:48.619Z,2.67
2023-04-27T05:17:18.269Z,2.75
2023-04-27T05:19:47.843Z,2.15
2023-04-27T05:22:17.457Z,2.22
2023-04-27T05:24:49.549Z,2.58
2023-04-27T05:27:19.148Z,2.53
2023-04-27T05:29:48.697Z,2.17
2023-04-27T05:32:18.235Z,2.58
2023-04-27T05:34:49.455Z,2.55
2023-04-27T05:37:19.266Z,2.72
2023-04-27T05:39:51.609Z,2.80
2023-04-27T05:42:21.935Z,2.58
2023-04-27T05:44:51.514Z,3.13
2023-04-27T05:47:21.043Z,2.83
2023-04-27T05:49:53.098Z,2.90
2023-04-27T05:52:22.819Z,2.42
2023-04-27T05:54:54.972Z,2.83
2023-04-27T05:57:24.589Z,3.10
2023-04-27T05:59:54.481Z,2.78
2023-04-27T06:02:25.776Z,2.67
2023-04-27T06:04:55.655Z,2.35
2023-04-27T06:07:25.286Z,2.67
2023-04-27T06:09:57.673Z,2.65
2023-04-27T06:12:27.400Z,2.45
2023-04-27T06:14:56.927Z,2.50
2023-04-27T06:17:26.560Z,1.98
2023-04-27T06:19:56.181Z,2.28
2023-04-27T06:22:25.764Z,2.88
2023-04-27T06:24:58.261Z,2.03
2023-04-27T06:27:27.877Z,2.05
2023-04-27T06:29:57.744Z,2.50
2023-04-27T06:32:27.403Z,2.03
2023-04-27T06:34:56.968Z,2.53
2023-04-27T06:37:26.565Z,1.88
2023-04-27T06:39:58.731Z,1.88
2023-04-27T06:42:28.300Z,2.13
2023-04-27T06:44:58.682Z,2.00
2023-04-27T06:47:28.333Z,1.40
2023-04-27T06:49:57.870Z,1.42
2023-04-27T06:52:27.505Z,1.85
2023-04-27T06:54:59.693Z,1.67
2023-04-27T06:57:29.387Z,1.40
2023-04-27T06:59:58.953Z,1.45
2023-04-27T07:02:28.647Z,2.08
2023-04-27T07:04:58.264Z,1.58
2023-04-27T07:07:27.998Z,1.85
2023-04-27T07:10:00.178Z,1.65
2023-04-27T07:12:30.018Z,2.13
2023-04-27T07:14:59.611Z,2.40
2023-04-27T07:17:29.251Z,1.90
2023-04-27T07:19:58.833Z,1.65
2023-04-27T07:22:29.134Z,2.00
2023-04-27T07:25:01.458Z,1.90
2023-04-27T07:27:32.159Z,2.60
2023-04-27T07:30:01.916Z,1.52
2023-04-27T07:32:31.742Z,2.25
2023-04-27T07:35:01.448Z,1.73
2023-04-27T07:37:31.202Z,1.95
2023-04-27T07:40:05.760Z,1.95
2023-04-27T07:42:35.451Z,1.85
2023-04-27T07:45:05.207Z,2.20
2023-04-27T07:47:34.896Z,2.50
2023-04-27T07:50:04.743Z,2.03
2023-04-27T07:52:34.381Z,1.75
2023-04-27T07:55:06.823Z,2.00
2023-04-27T07:57:36.626Z,1.90
2023-04-27T08:00:10.047Z,1.55
2023-04-27T08:02:42.719Z,1.80
2023-04-27T08:05:13.015Z,1.58
2023-04-27T08:07:44.848Z,1.63
2023-04-27T08:10:18.159Z,2.30
2023-04-27T08:12:48.021Z,1.90
2023-04-27T08:15:17.789Z,1.50
2023-04-27T08:17:47.538Z,1.40
2023-04-27T08:20:17.217Z,1.88
2023-04-27T08:22:46.926Z,2.03
2023-04-27T08:25:19.121Z,1.80
2023-04-27T08:27:48.694Z,2.25
2023-04-27T08:30:18.955Z,2.10
2023-04-27T08:32:48.669Z,2.17
2023-04-27T08:35:18.395Z,2.28
2023-04-27T08:37:47.985Z,1.90
2023-04-27T08:40:20.698Z,2.35
2023-04-27T08:42:57.573Z,2.28
2023-04-27T08:45:27.494Z,2.35
2023-04-27T08:47:57.374Z,2.75
2023-04-27T08:50:27.542Z,1.65
2023-04-27T08:52:57.168Z,2.25
2023-04-27T08:55:29.636Z,2.42
2023-04-27T08:58:01.487Z,2.80
2023-04-27T09:00:40.748Z,2.17
2023-04-27T09:03:12.189Z,2.20
2023-04-27T09:06:02.902Z,2.53
2023-04-27T09:08:43.910Z,2.80
2023-04-27T09:11:16.415Z,2.65
2023-04-27T09:13:47.210Z,2.35
2023-04-27T09:16:17.272Z,2.78
2023-04-27T09:18:47.416Z,2.75
2023-04-27T09:21:24.825Z,2.38
2023-04-27T09:23:54.608Z,2.85
2023-04-27T09:26:27.666Z,2.10
2023-04-27T09:28:58.661Z,2.65
2023-04-27T09:31:33.940Z,2.35
2023-04-27T09:34:04.001Z,2.80
2023-04-27T09:36:33.951Z,2.53
2023-04-27T09:39:06.494Z,2.47
2023-04-27T09:41:39.384Z,3.22
2023-04-27T09:44:10.412Z,2.75
2023-04-27T09:46:40.030Z,2.13
2023-04-27T09:49:09.700Z,3.45
2023-04-27T09:51:39.646Z,2.72
2023-04-27T09:54:10.737Z,2.70
2023-04-27T09:56:46.499Z,2.67
2023-04-27T09:59:29.319Z,2.60
2023-04-27T10:02:07.212Z,2.33
2023-04-27T10:05:02.983Z,2.55
2023-04-27T10:07:33.887Z,2.45
2023-04-27T10:10:05.168Z,3.08
2023-04-27T10:12:39.166Z,2.55
2023-04-27T10:15:16.080Z,2.63
2023-04-27T10:17:50.727Z,2.45
2023-04-27T10:20:20.457Z,2.47
2023-04-27T10:22:51.187Z,2.92
2023-04-27T10:25:22.289Z,2.60
2023-04-27T10:27:56.354Z,2.80
2023-04-27T10:30:27.293Z,2.60
2023-04-27T10:32:58.228Z,2.35
2023-04-27T10:35:35.824Z,2.58
2023-04-27T10:38:09.336Z,2.47
2023-04-27T10:40:39.401Z,2.30
2023-04-27T10:43:16.257Z,2.75
2023-04-27T10:45:46.493Z,2.65
2023-04-27T10:48:17.774Z,2.47
2023-04-27T10:50:47.783Z,2.67
2023-04-27T10:53:17.693Z,2.50
2023-04-27T10:55:47.261Z,2.25
2023-04-27T10:58:29.874Z,2.70
2023-04-27T11:01:04.524Z,2.65
2023-04-27T11:03:34.269Z,2.53
2023-04-27T11:06:05.232Z,2.95
2023-04-27T11:08:36.931Z,2.72
2023-04-27T11:11:06.941Z,2.40
2023-04-27T11:13:39.143Z,2.40
2023-04-27T11:16:09.034Z,2.38
2023-04-27T11:18:40.345Z,2.42
2023-04-27T11:21:11.183Z,2.60
2023-04-27T11:23:41.225Z,2.22
2023-04-27T11:26:14.804Z,2.70
2023-04-27T11:28:47.950Z,2.60
2023-04-27T11:31:17.665Z,2.53
2023-04-27T11:33:51.367Z,2.97
2023-04-27T11:36:21.305Z,2.85
2023-04-27T11:38:51.008Z,2.38
2023-04-27T11:41:20.705Z,2.10
2023-04-27T11:43:52.882Z,2.22
2023-04-27T11:46:23.259Z,2.20
2023-04-27T11:48:53.468Z,2.47
2023-04-27T11:51:23.415Z,2.55
2023-04-27T11:53:53.227Z,2.30
2023-04-27T11:56:22.772Z,2.17
2023-04-27T11:58:54.964Z,2.42
2023-04-27T12:01:34.770Z,2.30
2023-04-27T12:04:07.847Z,2.50
2023-04-27T12:06:38.569Z,2.30
2023-04-27T12:09:08.593Z,2.38
2023-04-27T12:11:38.553Z,2.08
2023-04-27T12:14:10.794Z,2.38
2023-04-27T12:16:40.484Z,2.35
2023-04-27T12:19:10.082Z,2.10
2023-04-27T12:21:40.050Z,2.15
2023-04-27T12:24:09.951Z,2.60
2023-04-27T12:26:39.970Z,2.28
2023-04-27T12:29:12.222Z,2.33
2023-04-27T12:31:42.532Z,2.58
2023-04-27T12:34:12.415Z,2.22
2023-04-27T12:36:42.332Z,2.13
2023-04-27T12:39:19.004Z,2.33
2023-04-27T12:41:49.253Z,2.20
2023-04-27T12:44:22.132Z,2.40
2023-04-27T12:46:52.138Z,1.80
2023-04-27T12:49:22.076Z,2.38
2023-04-27T12:51:52.188Z,2.28
2023-04-27T12:54:21.857Z,2.30
2023-04-27T12:56:51.924Z,2.30
2023-04-27T12:59:24.307Z,2.28
2023-04-27T13:01:54.124Z,2.25
2023-04-27T13:04:24.290Z,2.60
2023-04-27T13:06:54.274Z,2.60
2023-04-27T13:09:23.960Z,2.75
2023-04-27T13:11:54.388Z,2.50
2023-04-27T13:14:28.778Z,2.60
2023-04-27T13:16:58.492Z,1.92
2023-04-27T13:19:28.276Z,2.60
2023-04-27T13:21:57.971Z,2.35
2023-04-27T13:24:29.559Z,2.28
2023-04-27T13:26:59.378Z,2.47
2023-04-27T13:29:31.820Z,2.38
2023-04-27T13:32:01.571Z,2.45
2023-04-27T13:34:31.787Z,2.40
2023-04-27T13:37:01.432Z,2.30
2023-04-27T13:39:32.469Z,2.70
2023-04-27T13:42:02.522Z,2.47
2023-04-27T13:44:34.839Z,2.97
2023-04-27T13:47:05.235Z,2.50
2023-04-27T13:49:35.047Z,2.35
2023-04-27T13:52:04.842Z,1.98
2023-04-27T13:54:34.706Z,2.40
2023-04-27T13:57:04.317Z,3.28
2023-04-27T13:59:36.601Z,2.63
2023-04-27T14:02:06.320Z,2.10
2023-04-27T14:04:36.052Z,2.30
2023-04-27T14:07:05.785Z,2.03
2023-04-27T14:09:35.437Z,2.38
2023-04-27T14:12:05.035Z,2.22
2023-04-27T14:14:38.007Z,2.28
2023-04-27T14:17:08.191Z,2.10
2023-04-27T14:19:37.872Z,2.17
2023-04-27T14:22:08.427Z,1.90
2023-04-27T14:24:38.130Z,2.17
2023-04-27T14:27:07.709Z,2.40
2023-04-27T14:29:39.959Z,2.30
2023-04-27T14:32:09.691Z,2.50
2023-04-27T14:34:39.441Z,2.17
2023-04-27T14:37:09.106Z,2.58
2023-04-27T14:39:38.757Z,2.25
2023-04-27T14:42:08.408Z,2.08
2023-04-27T14:44:40.600Z,2.17
2023-04-27T14:47:10.348Z,2.03
2023-04-27T14:49:39.878Z,2.25
2023-04-27T14:52:09.493Z,2.13
2023-04-27T14:54:39.050Z,2.20
2023-04-27T14:57:08.667Z,2.25
2023-04-27T14:59:40.854Z,2.03
2023-04-27T15:02:10.558Z,2.15
2023-04-27T15:04:40.231Z,2.10
2023-04-27T15:07:13.188Z,2.13
2023-04-27T15:09:42.839Z,2.50
2023-04-27T15:12:13.167Z,2.58
2023-04-27T15:14:45.475Z,2.50
2023-04-27T15:17:15.732Z,2.53
2023-04-27T15:19:45.279Z,2.67
2023-04-27T15:22:15.054Z,2.55
2023-04-27T15:24:44.673Z,2.05
2023-04-27T15:27:14.239Z,2.33
2023-04-27T15:29:46.446Z,2.55
2023-04-27T15:32:16.131Z,2.80
2023-04-27T15:34:46.175Z,2.53
2023-04-27T15:37:15.901Z,3.30
2023-04-27T15:39:45.442Z,2.40
2023-04-27T15:42:15.008Z,3.10
2023-04-27T15:44:47.777Z,2.67
2023-04-27T15:47:17.933Z,3.30
2023-04-27T15:49:57.035Z,3.08
2023-04-27T15:52:28.624Z,2.80
2023-04-27T15:54:58.366Z,2.40
2023-04-27T15:57:28.005Z,2.33
2023-04-27T16:00:00.251Z,2.90
2023-04-27T16:02:30.214Z,2.45
2023-04-27T16:04:59.824Z,2.55
2023-04-27T16:07:29.461Z,2.92
2023-04-27T16:09:59.031Z,2.63
2023-04-27T16:12:28.738Z,2.72
2023-04-27T16:15:01.219Z,3.30
2023-04-27T16:17:31.954Z,2.70
2023-04-27T16:20:01.636Z,2.42
2023-04-27T16:22:32.020Z,2.80
2023-04-27T16:25:01.866Z,2.38
2023-04-27T16:27:31.806Z,2.83
2023-04-27T16:30:04.048Z,2.25
2023-04-27T16:32:35.398Z,2.30
2023-04-27T16:35:05.673Z,3.10
2023-04-27T16:37:35.346Z,2.88
2023-04-27T16:40:07.040Z,2.80
2023-04-27T16:42:36.796Z,2.83
2023-04-27T16:45:10.843Z,2.58
2023-04-27T16:47:42.460Z,2.13
2023-04-27T16:50:12.644Z,3.22
2023-04-27T16:52:42.188Z,2.50
2023-04-27T16:55:12.083Z,2.58
2023-04-27T16:57:41.858Z,2.40
2023-04-27T17:00:14.801Z,2.45
2023-04-27T17:02:44.635Z,3.03
2023-04-27T17:05:14.419Z,2.92
2023-04-27T17:07:44.034Z,2.72
2023-04-27T17:10:13.770Z,2.20
2023-04-27T17:12:43.379Z,2.60
2023-04-27T17:15:15.788Z,2.03
2023-04-27T17:17:45.473Z,2.58
2023-04-27T17:20:15.555Z,2.33
2023-04-27T17:22:46.353Z,2.13
2023-04-27T17:25:16.296Z,2.55
2023-04-27T17:27:45.852Z,2.58
2023-04-27T17:30:18.396Z,2.65
2023-04-27T17:32:48.080Z,2.45
2023-04-27T17:35:20.707Z,2.75
2023-04-27T17:37:50.432Z,3.00
2023-04-27T17:40:21.116Z,2.40
2023-04-27T17:42:51.181Z,2.55
2023-04-27T17:45:24.379Z,2.67
2023-04-27T17:47:54.085Z,2.97
2023-04-27T17:50:23.791Z,2.85
2023-04-27T17:52:54.335Z,2.58
2023-04-27T17:55:24.189Z,2.60
2023-04-27T17:57:53.781Z,2.65
2023-04-27T18:00:26.027Z,2.42
2023-04-27T18:02:55.960Z,2.42
2023-04-27T18:05:25.712Z,3.17
2023-04-27T18:07:55.723Z,2.22
2023-04-27T18:10:25.355Z,2.20
2023-04-27T18:12:54.950Z,2.75
2023-04-27T18:15:27.234Z,2.95
2023-04-27T18:17:56.986Z,2.60
2023-04-27T18:20:27.912Z,3.17
2023-04-27T18:22:57.774Z,2.50
2023-04-27T18:25:27.447Z,2.97
2023-04-27T18:27:57.107Z,2.80
2023-04-27T18:30:29.328Z,2.72
2023-04-27T18:32:59.032Z,2.53
2023-04-27T18:35:28.692Z,2.58
2023-04-27T18:37:58.300Z,2.65
2023-04-27T18:40:27.973Z,2.15
2023-04-27T18:42:57.870Z,2.38
2023-04-27T18:45:30.223Z,2.83
2023-04-27T18:47:59.899Z,2.67
2023-04-27T18:50:29.609Z,2.60
2023-04-27T18:52:59.367Z,3.53
2023-04-27T18:55:29.101Z,2.67
2023-04-27T18:57:58.805Z,2.35
2023-04-27T19:00:31.546Z,2.25
2023-04-27T19:03:01.325Z,2.65
2023-04-27T19:05:31.093Z,2.55
2023-04-27T19:08:01.655Z,2.70
2023-04-27T19:10:31.315Z,2.35
2023-04-27T19:13:01.012Z,2.65
2023-04-27T19:15:33.264Z,3.47
2023-04-27T19:18:10.388Z,3.00
2023-04-27T19:20:40.431Z,3.72
2023-04-27T19:23:12.712Z,3.42
2023-04-27T19:25:42.451Z,2.80
2023-04-27T19:28:12.071Z,2.88
2023-04-27T19:30:44.396Z,3.28
2023-04-27T19:33:14.323Z,2.90
2023-04-27T19:35:44.511Z,2.75
2023-04-27T19:38:14.155Z,2.70
2023-04-27T19:40:43.812Z,2.30
2023-04-27T19:43:14.222Z,2.80
2023-04-27T19:45:49.265Z,2.92
2023-04-27T19:48:20.288Z,3.10
2023-04-27T19:50:49.925Z,3.47
2023-04-27T19:53:19.512Z,2.88
2023-04-27T19:55:49.354Z,2.35
2023-04-27T19:58:19.146Z,2.50
2023-04-27T20:00:51.665Z,2.92
2023-04-27T20:03:21.946Z,2.88
2023-04-27T20:05:52.087Z,3.55
2023-04-27T20:08:21.931Z,3.10
2023-04-27T20:10:51.505Z,3.08
2023-04-27T20:13:21.289Z,2.65
2023-04-27T20:15:53.671Z,2.80
2023-04-27T20:18:25.165Z,5.15
2023-04-27T20:20:54.783Z,4.70
2023-04-27T20:23:24.425Z,4.30
2023-04-27T20:25:54.478Z,4.22
2023-04-27T20:28:24.104Z,4.80
2023-04-27T20:30:56.410Z,3.88
2023-04-27T20:33:26.054Z,3.15
2023-04-27T20:36:03.538Z,3.50
2023-04-27T20:38:41.419Z,3.53
2023-04-27T20:41:12.515Z,3.40
2023-04-27T20:43:44.888Z,3.15
2023-04-27T20:46:17.432Z,3.22
2023-04-27T20:48:48.205Z,3.10
2023-04-27T20:51:17.771Z,3.38
2023-04-27T20:53:47.379Z,3.25
2023-04-27T20:56:17.095Z,3.13
2023-04-27T20:58:47.026Z,3.33
2023-04-27T21:01:19.319Z,4.00
2023-04-27T21:03:49.259Z,3.63
2023-04-27T21:06:18.975Z,3.25
2023-04-27T21:08:48.818Z,3.65
2023-04-27T21:11:18.482Z,4.10
2023-04-27T21:13:48.024Z,3.53
2023-04-27T21:16:20.302Z,4.10
2023-04-27T21:18:49.983Z,3.70
2023-04-27T21:21:21.694Z,3.53
2023-04-27T21:23:57.400Z,3.75
2023-04-27T21:26:36.668Z,3.90
2023-04-27T21:29:08.382Z,3.92
2023-04-27T21:31:41.143Z,3.10
2023-04-27T21:34:11.114Z,3.85
2023-04-27T21:36:40.678Z,3.53
2023-04-27T21:39:10.300Z,3.70
2023-04-27T21:41:41.186Z,3.63
2023-04-27T21:44:11.555Z,3.65
2023-04-27T21:46:44.024Z,3.30
2023-04-27T21:49:13.947Z,4.50
2023-04-27T21:51:43.501Z,4.38
2023-04-27T21:54:13.288Z,4.78
2023-04-27T21:56:43.037Z,4.32
2023-04-27T21:59:12.742Z,4.18
2023-04-27T22:01:45.500Z,3.42
2023-04-27T22:04:16.975Z,3.33
2023-04-27T22:06:46.971Z,3.80
2023-04-27T22:09:16.779Z,3.50
2023-04-27T22:11:46.758Z,4.82
2023-04-27T22:14:17.357Z,5.57
2023-04-27T22:16:49.905Z,5.05
2023-04-27T22:19:19.575Z,3.75
2023-04-27T22:21:49.168Z,4.22
2023-04-27T22:24:18.805Z,3.08
2023-04-27T22:26:48.580Z,2.88
2023-04-27T22:29:18.308Z,3.15
2023-04-27T22:31:50.694Z,3.55
2023-04-27T22:34:20.566Z,3.50
2023-04-27T22:36:50.214Z,3.85
2023-04-27T22:39:19.896Z,3.83
2023-04-27T22:41:49.503Z,4.05
2023-04-27T22:44:19.118Z,4.05
2023-04-27T22:46:51.451Z,3.75
2023-04-27T22:49:21.131Z,3.42
2023-04-27T22:51:50.758Z,3.53
2023-04-27T22:54:20.449Z,3.40
2023-04-27T22:56:50.080Z,3.90
2023-04-27T22:59:22.999Z,3.15
2023-04-27T23:01:55.445Z,3.70
2023-04-27T23:04:26.930Z,3.65
2023-04-27T23:06:57.737Z,4.28
2023-04-27T23:09:27.947Z,3.65
2023-04-27T23:11:59.119Z,3.60
2023-04-27T23:14:29.384Z,3.53
2023-04-27T23:17:02.123Z,2.75
2023-04-27T23:19:31.991Z,3.28
2023-04-27T23:22:03.200Z,3.90
2023-04-27T23:24:32.994Z,3.80
2023-04-27T23:27:02.580Z,3.05
2023-04-27T23:29:33.562Z,3.42
2023-04-27T23:32:07.773Z,3.30
2023-04-27T23:34:37.600Z,3.47
2023-04-27T23:37:07.890Z,3.60
2023-04-27T23:39:37.528Z,3.30
2023-04-27T23:42:07.396Z,3.60
2023-04-27T23:44:37.031Z,3.35
2023-04-27T23:47:09.865Z,3.75
2023-04-27T23:49:39.563Z,3.53
2023-04-27T23:52:09.220Z,3.35
2023-04-27T23:54:38.856Z,3.30
2023-04-27T23:57:08.520Z,3.60
2023-04-27T23:59:38.217Z,3.67
